DURO2: Washita River Durwood, OK

Data processed at Tue May 21 2019 23:50


All information presented herein is the property of the government of the United States of America and may be revised or deleted at any time without prior notice.
Dissemination of this information without the expressed written consent of the Public Affairs Office, Tulsa District U.S. Army Corps of Engineers is strictly prohibited.
These data are gathered electronically and, as presented, have not undergone any form of quality control. These data are not guaranteed to be valid or correct.
Go to home page.
Go to station list.
Go to home page.

Upstream stations:

Downstream station:
Previous Day
Next Day
Current Day
    
SHEF ID:       DURO2     Washita River near Dickson, OK
STATION TYPE:  
Regulating: Stage =    27.00, Flow =    37677

               PRECIP PRECIP(A)     STAGE  RIV-FLOW  BAT-LOAD
                   in        in        ft       cfs      volt
              Ccp-Rev   Ccp-Rev   Ccp-Rev   Ccp-Rev   Ccp-Rev
(US/Central)
05/21 00:00      0.00      ----     13.99      7979     12.57
05/21 01:00      0.00      ----     13.94      7907     12.49
05/21 02:00      0.00      ----     13.89      7836     12.49
05/21 03:00      0.00      ----     13.81      7723     12.49
05/21 04:00      0.00      ----     13.74      7625     12.49
05/21 05:00      0.00      ----     13.73      7611     12.49
05/21 06:00      0.17      ----     13.67      7527     12.41
05/21 07:00      0.41      ----     13.67      7527     12.41
05/21 08:00      0.04      ----     13.64      7485     12.41
05/21 09:00      0.05      ----     13.67      7527     12.41
05/21 10:00      0.01      ----     13.71      7583     12.41
05/21 11:00      0.00      ----     13.79      7695     12.81
05/21 12:00      0.00      ----     13.86      7794     12.73
05/21 13:00      0.00      ----     13.98      7964     13.05
05/21 14:00      0.00      ----     14.09      8122     12.81
05/21 15:00      0.00      ----     14.23      8325     12.81
05/21 16:00      0.00      ----     14.39      8559     12.81
05/21 17:00      0.00      ----     14.65      8945     12.73
05/21 18:00      0.00      ----     14.99      9461     12.73
05/21 19:00      0.00      ----     15.39     10083     12.65
05/21 20:00      0.00      ----     15.79     10722     12.65
05/21 21:00      0.00      ----     16.17     11345     12.57
05/21 22:00      0.00      ----     16.49     11955     12.57
05/21 23:00      0.00      ----     16.74     12457     12.49